Time;durP1;ratioP1;P1;durP2;ratioP2;P2;SDS_P1;SDS_P2;PMS_P1;PMS_P2;Temp;Humidity;BMP_temperature;BMP_pressure;BME280_temperature;BME280_humidity;BME280_pressure;Samples;Min_cycle;Max_cycle;Signal;HPM_P1;HPM_P2
2021/10/06 00:00:06;;;;;;;25.82;15.40;;;;;;;6.39;79.56;101870.44;1724622;81;21070;-78
2021/10/06 00:02:35;;;;;;;27.15;15.03;;;;;;;6.33;79.54;101865.17;1686640;84;21645;-78
2021/10/06 00:05:04;;;;;;;32.73;15.95;;;;;;;6.27;79.59;101871.22;1693841;84;21060;-80
2021/10/06 00:07:31;;;;;;;31.57;16.02;;;;;;;6.24;80.94;101878.18;1690878;84;21585;-80
2021/10/06 00:09:57;;;;;;;28.70;15.75;;;;;;;6.20;80.59;101875.95;1692794;84;21582;-80
2021/10/06 00:12:23;;;;;;;34.03;15.93;;;;;;;6.16;80.64;101871.55;1697551;84;21051;-79
2021/10/06 00:14:50;;;;;;;28.17;15.05;;;;;;;6.13;81.47;101873.28;1689287;84;21060;-78
2021/10/06 00:17:16;;;;;;;31.07;15.58;;;;;;;6.11;81.67;101877.17;1694158;83;21059;-79
2021/10/06 00:19:43;;;;;;;29.10;16.32;;;;;;;6.12;81.93;101872.81;1699554;84;21038;-78
2021/10/06 00:22:09;;;;;;;35.13;16.70;;;;;;;6.07;82.30;101865.83;1707951;84;21952;-76
2021/10/06 00:24:36;;;;;;;39.75;18.07;;;;;;;6.02;82.22;101867.94;1722456;83;21052;-77
2021/10/06 00:27:03;;;;;;;27.15;15.55;;;;;;;5.98;82.45;101868.77;1676142;85;21053;-76
2021/10/06 00:29:30;;;;;;;24.80;14.55;;;;;;;5.94;82.54;101873.11;1670796;85;21078;-76
2021/10/06 00:31:57;;;;;;;32.03;16.45;;;;;;;5.92;84.23;101869.56;1670948;85;21074;-78
2021/10/06 00:34:24;;;;;;;34.92;17.30;;;;;;;5.88;83.94;101867.77;1656763;86;21130;-77
2021/10/06 00:36:52;;;;;;;33.60;16.20;;;;;;;5.91;85.00;101878.69;1721064;83;21033;-80
2021/10/06 00:39:18;;;;;;;29.72;15.20;;;;;;;5.92;86.10;101881.33;1702030;83;21041;-81
2021/10/06 00:41:45;;;;;;;31.90;15.13;;;;;;;5.93;85.04;101885.68;1721002;82;21041;-78
2021/10/06 00:44:19;;;;;;;28.73;14.78;;;;;;;5.94;85.77;101879.64;1720496;82;21571;-78
2021/10/06 00:46:48;;;;;;;25.45;14.60;;;;;;;5.93;85.05;101873.91;1720902;83;21069;-79
2021/10/06 00:49:14;;;;;;;27.85;15.35;;;;;;;5.89;85.08;101878.69;1720581;82;21072;-79
2021/10/06 00:51:42;;;;;;;26.45;14.95;;;;;;;5.86;86.20;101874.72;1720494;83;21045;-79
2021/10/06 00:54:08;;;;;;;28.73;14.47;;;;;;;5.83;85.63;101873.39;1720341;83;21029;-77
2021/10/06 00:56:35;;;;;;;28.98;14.38;;;;;;;5.78;85.64;101873.34;1720957;83;20998;-77
2021/10/06 00:59:01;;;;;;;27.20;15.28;;;;;;;5.72;86.17;101877.63;1720491;82;21482;-78
2021/10/06 01:01:28;;;;;;;29.37;14.65;;;;;;;5.70;86.22;101879.34;1721071;82;21124;-77
2021/10/06 01:03:57;;;;;;;31.87;15.40;;;;;;;5.64;86.86;101884.95;1720417;82;21532;-79
2021/10/06 01:06:24;;;;;;;32.67;16.12;;;;;;;5.59;86.94;101895.80;1684938;84;21626;-78
2021/10/06 01:08:50;;;;;;;28.67;16.57;;;;;;;5.54;87.11;101885.69;1699959;83;21005;-75
2021/10/06 01:11:16;;;;;;;27.93;16.80;;;;;;;5.51;87.34;101884.80;1708952;81;21096;-78
2021/10/06 01:13:43;;;;;;;32.73;17.40;;;;;;;5.46;87.28;101882.13;1713368;83;21055;-76
2021/10/06 01:16:10;;;;;;;31.97;16.05;;;;;;;5.43;88.44;101892.55;1721697;83;21613;-76
2021/10/06 01:18:37;;;;;;;27.25;16.02;;;;;;;5.40;88.37;101889.44;1720347;83;21079;-78
2021/10/06 01:21:17;;;;;;;29.40;16.37;;;;;;;5.36;88.56;101884.16;1723864;83;21059;-79
2021/10/06 01:23:46;;;;;;;33.63;16.10;;;;;;;5.32;90.11;101882.39;1723341;83;21144;-80
2021/10/06 01:26:18;;;;;;;32.90;15.95;;;;;;;5.31;89.96;101875.39;1722822;83;21495;-81
2021/10/06 01:28:42;;;;;;;29.40;16.30;;;;;;;5.28;90.91;101874.93;1722731;83;21080;-82
2021/10/06 01:31:09;;;;;;;33.28;15.08;;;;;;;5.23;91.18;101881.41;1723297;83;21005;-81
2021/10/06 01:33:35;;;;;;;34.53;15.40;;;;;;;5.18;91.17;101879.17;1723167;83;21578;-79
2021/10/06 01:36:01;;;;;;;25.40;15.08;;;;;;;5.17;92.20;101885.23;1723148;83;21504;-79
2021/10/06 01:38:28;;;;;;;25.80;15.05;;;;;;;5.16;91.83;101886.10;1723108;83;21048;-79
2021/10/06 01:40:54;;;;;;;31.93;14.58;;;;;;;5.11;91.93;101885.17;1723651;83;21100;-82
2021/10/06 01:43:21;;;;;;;26.35;13.80;;;;;;;5.05;92.10;101885.08;1723634;83;21016;-83
2021/10/06 01:45:47;;;;;;;28.73;14.95;;;;;;;5.05;92.40;101892.91;1723718;83;21040;-81
2021/10/06 01:48:14;;;;;;;31.73;14.05;;;;;;;5.03;92.67;101892.01;1723303;83;21150;-83
2021/10/06 01:50:42;;;;;;;27.35;15.13;;;;;;;5.02;92.77;101893.75;1723592;83;21082;-83
2021/10/06 01:53:11;;;;;;;26.75;14.30;;;;;;;5.01;93.19;101896.33;1723806;83;21001;-81
2021/10/06 01:55:38;;;;;;;26.60;13.87;;;;;;;5.00;93.39;101894.59;1723680;83;21564;-83
2021/10/06 01:58:11;;;;;;;29.55;15.45;;;;;;;4.99;93.56;101892.81;1724103;83;21131;-83
2021/10/06 02:00:39;;;;;;;32.80;15.35;;;;;;;5.00;94.26;101890.23;1725014;83;21184;-79
2021/10/06 02:03:05;;;;;;;27.67;14.05;;;;;;;5.00;94.51;101897.20;1718850;83;21049;-79
2021/10/06 02:05:34;;;;;;;31.25;15.90;;;;;;;4.99;94.64;101892.41;1707985;83;21043;-77
2021/10/06 02:08:01;;;;;;;29.75;15.08;;;;;;;5.01;95.00;101898.94;1724217;82;21024;-79
2021/10/06 02:10:29;;;;;;;31.77;15.78;;;;;;;4.99;95.00;101893.72;1708015;83;21115;-79
2021/10/06 02:12:57;;;;;;;29.87;15.90;;;;;;;4.99;95.09;101901.95;1716204;83;21099;-78
2021/10/06 02:15:24;;;;;;;25.43;14.55;;;;;;;4.97;96.00;101898.44;1715748;83;20934;-80
2021/10/06 02:17:51;;;;;;;27.67;14.28;;;;;;;4.97;95.61;101901.05;1723129;83;21040;-82
2021/10/06 02:20:17;;;;;;;30.80;15.88;;;;;;;4.98;96.11;101901.52;1723582;82;21040;-83
2021/10/06 02:22:44;;;;;;;28.27;16.25;;;;;;;4.99;95.86;101904.56;1724904;83;21045;-78
2021/10/06 02:25:10;;;;;;;33.67;16.57;;;;;;;4.96;95.90;101903.22;1722306;82;21117;-82
2021/10/06 02:27:38;;;;;;;32.25;16.85;;;;;;;4.95;96.15;101902.79;1723393;83;21049;-80
2021/10/06 02:30:07;;;;;;;31.42;15.93;;;;;;;4.93;96.04;101917.12;1691531;84;21076;-79
2021/10/06 02:32:34;;;;;;;31.75;17.52;;;;;;;4.89;96.71;101914.44;1674153;85;21019;-79
2021/10/06 02:35:00;;;;;;;31.95;14.80;;;;;;;4.87;96.57;101920.06;1674396;85;21157;-80
2021/10/06 02:37:27;;;;;;;28.55;16.57;;;;;;;4.84;96.62;101915.23;1676284;85;21470;-81
2021/10/06 02:39:53;;;;;;;33.58;18.10;;;;;;;4.81;97.36;101915.20;1676457;85;21038;-81
2021/10/06 02:42:20;;;;;;;36.42;17.40;;;;;;;4.79;97.29;101916.91;1676120;85;21034;-82
2021/10/06 02:44:46;;;;;;;34.45;16.60;;;;;;;4.78;97.72;101912.52;1677520;82;20911;-82
2021/10/06 02:47:13;;;;;;;31.90;16.82;;;;;;;4.74;97.85;101919.88;1666958;84;21098;-80
2021/10/06 02:49:39;;;;;;;33.30;18.30;;;;;;;4.70;97.81;101925.91;1678434;82;21585;-80
2021/10/06 02:52:06;;;;;;;32.63;18.98;;;;;;;4.70;98.50;101929.81;1695930;81;20982;-79
2021/10/06 02:54:32;;;;;;;31.05;16.05;;;;;;;4.68;98.76;101930.65;1694417;84;21138;-81
2021/10/06 02:57:01;;;;;;;35.38;18.27;;;;;;;4.67;98.88;101932.39;1691715;84;21088;-81
2021/10/06 02:59:28;;;;;;;32.50;16.85;;;;;;;4.65;99.11;101936.70;1692686;84;21068;-82
2021/10/06 03:01:55;;;;;;;33.38;16.87;;;;;;;4.60;98.95;101933.11;1670580;84;22077;-81
2021/10/06 03:04:22;;;;;;;35.08;15.58;;;;;;;4.58;99.58;101943.55;1676922;85;21150;-82
2021/10/06 03:06:48;;;;;;;33.78;16.32;;;;;;;4.56;99.44;101940.47;1675228;85;21094;-82
2021/10/06 03:09:15;;;;;;;31.57;15.60;;;;;;;4.55;99.57;101942.61;1668804;85;21093;-81
2021/10/06 03:11:41;;;;;;;28.20;14.98;;;;;;;4.53;99.94;101941.70;1665659;85;21726;-81
2021/10/06 03:14:08;;;;;;;30.00;16.05;;;;;;;4.53;100.00;101948.22;1686227;84;21093;-82
2021/10/06 03:16:35;;;;;;;30.40;16.27;;;;;;;4.52;100.00;101950.39;1662615;84;21087;-82
2021/10/06 03:19:01;;;;;;;31.62;15.40;;;;;;;4.51;100.00;101953.83;1680567;84;21115;-79
2021/10/06 03:21:28;;;;;;;31.95;16.57;;;;;;;4.48;100.00;101956.40;1690838;84;21102;-80
2021/10/06 03:23:55;;;;;;;32.53;15.43;;;;;;;4.46;100.00;101960.71;1690679;84;21110;-81
2021/10/06 03:26:22;;;;;;;33.13;15.98;;;;;;;4.44;100.00;101968.53;1690506;84;21164;-81
2021/10/06 03:28:48;;;;;;;26.50;15.00;;;;;;;4.43;100.00;101962.84;1667662;84;21119;-81
2021/10/06 03:31:15;;;;;;;30.08;15.35;;;;;;;4.43;100.00;101964.58;1659112;85;21068;-82
2021/10/06 03:33:41;;;;;;;28.20;16.15;;;;;;;4.44;100.00;101969.84;1659024;85;21052;-81
2021/10/06 03:36:07;;;;;;;29.92;15.38;;;;;;;4.43;100.00;101971.97;1659220;86;21106;-82
2021/10/06 03:38:35;;;;;;;27.17;15.50;;;;;;;4.40;100.00;101968.02;1659077;86;21550;-80
2021/10/06 03:41:01;;;;;;;33.00;15.45;;;;;;;4.39;100.00;101967.55;1659003;85;21100;-81
2021/10/06 03:43:28;;;;;;;26.50;14.68;;;;;;;4.36;100.00;101967.07;1659070;86;21055;-80
2021/10/06 03:45:55;;;;;;;33.67;15.55;;;;;;;4.35;100.00;101967.94;1659167;85;21055;-79
2021/10/06 03:48:21;;;;;;;29.52;15.45;;;;;;;4.35;100.00;101970.55;1659045;86;21094;-79
2021/10/06 03:50:47;;;;;;;27.20;15.32;;;;;;;4.34;100.00;101962.25;1658939;85;21135;-81
2021/10/06 03:53:14;;;;;;;31.65;16.35;;;;;;;4.35;100.00;101960.55;1659205;86;21588;-80
2021/10/06 03:55:41;;;;;;;34.43;14.93;;;;;;;4.33;100.00;101961.81;1721431;79;21013;-72
2021/10/06 03:58:07;;;;;;;26.12;14.47;;;;;;;4.33;100.00;101964.42;1783353;79;21007;-74
2021/10/06 04:00:34;;;;;;;30.85;15.15;;;;;;;4.32;100.00;101966.55;1772593;79;21036;-74
2021/10/06 04:03:01;;;;;;;37.25;15.45;;;;;;;4.35;100.00;101972.28;1765132;81;21076;-73
2021/10/06 04:05:27;;;;;;;31.95;16.30;;;;;;;4.33;100.00;101969.64;1762856;81;21088;-71
2021/10/06 04:07:55;;;;;;;34.13;15.60;;;;;;;4.33;100.00;101968.33;1760664;80;21491;-73
2021/10/06 04:10:24;;;;;;;32.50;15.05;;;;;;;4.31;100.00;101972.64;1764168;81;21096;-73
2021/10/06 04:12:51;;;;;;;38.17;16.48;;;;;;;4.30;100.00;101974.81;1764587;81;21087;-75
2021/10/06 04:15:18;;;;;;;33.35;16.45;;;;;;;4.30;100.00;101968.28;1765079;81;21256;-72
2021/10/06 04:17:45;;;;;;;32.45;14.65;;;;;;;4.31;100.00;101976.55;1764675;80;21638;-76
2021/10/06 04:20:12;;;;;;;34.45;15.98;;;;;;;4.34;100.00;101980.51;1763981;81;21057;-77
2021/10/06 04:22:39;;;;;;;33.75;17.32;;;;;;;4.35;100.00;101980.98;1763434;81;21093;-71
2021/10/06 04:25:06;;;;;;;33.83;15.93;;;;;;;4.38;100.00;101986.24;1762608;79;20965;-71
2021/10/06 04:27:34;;;;;;;30.08;15.65;;;;;;;4.39;100.00;101984.11;1762676;79;21118;-74
2021/10/06 04:30:02;;;;;;;28.90;15.40;;;;;;;4.39;100.00;101985.41;1721397;82;21543;-77
2021/10/06 04:32:30;;;;;;;30.12;15.68;;;;;;;4.41;100.00;101991.94;1722292;81;21058;-72
2021/10/06 04:34:56;;;;;;;35.55;15.53;;;;;;;4.45;100.00;101992.89;1712804;83;21592;-72
2021/10/06 04:37:22;;;;;;;40.80;17.48;;;;;;;4.49;100.00;101999.92;1701013;84;21089;-72
2021/10/06 04:39:49;;;;;;;36.63;17.00;;;;;;;4.52;100.00;102002.58;1753674;81;21146;-70
2021/10/06 04:42:16;;;;;;;47.10;16.10;;;;;;;4.52;100.00;101999.97;1751543;81;22000;-70
2021/10/06 04:44:43;;;;;;;33.25;15.93;;;;;;;4.55;100.00;102002.62;1699347;84;21040;-71
2021/10/06 04:47:09;;;;;;;41.37;18.05;;;;;;;4.58;100.00;102007.91;1700450;84;21115;-71
2021/10/06 04:49:36;;;;;;;33.83;17.30;;;;;;;4.64;100.00;102005.39;1717607;83;21091;-72
2021/10/06 04:52:03;;;;;;;39.25;18.27;;;;;;;4.98;100.00;101995.08;1718114;82;21090;-71
2021/10/06 04:54:30;;;;;;;35.50;16.97;;;;;;;5.54;100.00;102005.91;1714642;83;21062;-73
2021/10/06 04:56:57;;;;;;;33.28;15.65;;;;;;;6.04;100.00;101993.07;1706404;82;21053;-73
2021/10/06 04:59:23;;;;;;;34.03;16.48;;;;;;;6.45;98.92;102002.67;1697010;83;21082;-74
2021/10/06 05:01:50;;;;;;;42.15;17.77;;;;;;;6.56;95.91;102004.53;1689539;83;21218;-74
2021/10/06 05:04:16;;;;;;;34.05;16.57;;;;;;;6.54;95.73;102006.25;1680733;84;21138;-75
2021/10/06 05:06:43;;;;;;;31.77;16.75;;;;;;;6.78;95.78;102008.20;1725042;82;21042;-74
2021/10/06 05:09:11;;;;;;;35.00;18.10;;;;;;;7.17;92.29;102006.32;1705500;83;21098;-72
2021/10/06 05:11:38;;;;;;;33.25;17.82;;;;;;;7.63;91.19;102007.91;1723306;83;21057;-73
2021/10/06 05:14:04;;;;;;;32.40;18.15;;;;;;;8.18;89.52;102013.38;1725165;82;21017;-73
2021/10/06 05:16:32;;;;;;;40.08;16.35;;;;;;;8.74;84.90;102013.52;1698577;84;21021;-73
2021/10/06 05:18:59;;;;;;;32.50;16.65;;;;;;;9.18;84.11;102015.28;1670566;84;21045;-75
2021/10/06 05:21:26;;;;;;;27.82;16.75;;;;;;;9.53;80.75;102009.08;1681325;85;21700;-73
2021/10/06 05:23:53;;;;;;;29.60;15.50;;;;;;;9.92;79.24;102005.42;1698199;84;21121;-72
2021/10/06 05:26:21;;;;;;;43.17;17.32;;;;;;;10.29;75.42;102003.50;1699970;83;22073;-73
2021/10/06 05:28:51;;;;;;;35.35;15.53;;;;;;;10.61;74.63;102004.19;1727356;83;22057;-74
2021/10/06 05:31:24;;;;;;;37.05;15.98;;;;;;;10.85;73.28;102009.25;1726896;82;21070;-74
2021/10/06 05:33:49;;;;;;;30.15;14.83;;;;;;;11.13;72.26;102004.63;1723294;83;21090;-73
2021/10/06 05:36:16;;;;;;;30.65;14.58;;;;;;;11.43;70.83;102009.14;1722567;82;21060;-73
2021/10/06 05:38:43;;;;;;;35.50;14.55;;;;;;;11.81;71.42;102006.53;1696829;83;21046;-71
2021/10/06 05:41:10;;;;;;;26.55;14.03;;;;;;;12.13;67.27;102011.43;1722139;81;21064;-72
2021/10/06 05:43:37;;;;;;;31.90;13.53;;;;;;;12.42;65.55;102003.98;1723283;81;21580;-71
2021/10/06 05:46:03;;;;;;;29.85;14.65;;;;;;;12.50;64.92;102007.39;1726085;82;21565;-71
2021/10/06 05:48:30;;;;;;;26.05;13.78;;;;;;;12.50;64.11;102007.39;1725846;81;21113;-71
2021/10/06 05:50:57;;;;;;;33.95;14.90;;;;;;;12.60;64.31;102012.49;1726708;81;21075;-74
2021/10/06 05:53:24;;;;;;;22.45;13.53;;;;;;;12.75;63.61;102011.85;1726256;81;21526;-73
2021/10/06 05:55:51;;;;;;;26.05;14.10;;;;;;;12.67;62.89;102002.70;1722774;82;21089;-72
2021/10/06 05:58:19;;;;;;;23.85;12.95;;;;;;;12.66;62.75;102006.26;1730412;82;21285;-72
2021/10/06 06:00:45;;;;;;;26.65;14.40;;;;;;;12.85;63.15;102011.25;1752831;80;21306;-72
2021/10/06 06:03:12;;;;;;;26.02;14.10;;;;;;;13.31;62.41;102011.34;1749445;82;21046;-71
2021/10/06 06:05:42;;;;;;;25.25;12.55;;;;;;;13.71;60.00;102012.34;1663696;79;21667;-76
2021/10/06 06:08:11;;;;;;;21.00;12.45;;;;;;;13.92;58.90;102008.38;1622963;87;21439;-76
2021/10/06 06:10:37;;;;;;;25.12;13.58;;;;;;;14.25;60.97;102007.66;1633817;85;21029;-76
2021/10/06 06:13:04;;;;;;;19.90;11.73;;;;;;;14.71;57.73;102013.70;1642352;85;21108;-78
2021/10/06 06:15:31;;;;;;;22.82;12.55;;;;;;;15.01;58.26;102009.42;1640921;85;21076;-78
2021/10/06 06:17:57;;;;;;;18.67;11.03;;;;;;;15.28;56.04;102013.14;1672945;83;21655;-77
2021/10/06 06:20:24;;;;;;;22.25;12.10;;;;;;;15.43;55.24;102008.32;1641935;86;21050;-78
2021/10/06 06:22:51;;;;;;;20.88;12.43;;;;;;;15.53;55.99;102005.84;1651497;85;21076;-77
2021/10/06 06:25:21;;;;;;;22.32;13.10;;;;;;;15.94;53.71;102002.47;1651872;85;21063;-78
2021/10/06 06:27:47;;;;;;;22.98;11.97;;;;;;;16.12;53.14;102003.70;1653970;86;21367;-78
2021/10/06 06:30:13;;;;;;;20.30;11.00;;;;;;;16.05;53.70;102010.13;1652292;86;21452;-78
2021/10/06 06:32:41;;;;;;;17.32;10.03;;;;;;;16.21;52.50;102007.41;1650441;86;21052;-79
2021/10/06 06:35:09;;;;;;;26.30;11.70;;;;;;;16.53;54.86;102001.08;1656799;85;21808;-79
2021/10/06 06:37:35;;;;;;;18.95;10.43;;;;;;;16.76;51.42;102000.80;1651639;85;21571;-79
2021/10/06 06:40:04;;;;;;;17.77;9.80;;;;;;;16.85;50.93;102005.84;1654116;86;21096;-80
2021/10/06 06:42:31;;;;;;;15.75;9.20;;;;;;;17.09;52.13;102008.59;1647298;85;21108;-78
2021/10/06 06:44:57;;;;;;;17.92;9.08;;;;;;;17.04;49.56;102013.20;1652068;86;21071;-79
2021/10/06 06:47:25;;;;;;;13.95;7.70;;;;;;;16.84;50.75;102012.10;1654428;86;21174;-79
2021/10/06 06:49:53;;;;;;;15.30;8.30;;;;;;;16.98;50.95;102008.52;1643959;86;21078;-78
2021/10/06 06:52:20;;;;;;;14.95;7.92;;;;;;;17.35;49.04;102013.89;1647554;85;21124;-80
2021/10/06 06:54:46;;;;;;;12.33;8.00;;;;;;;17.44;48.51;102010.47;1690368;83;21826;-79
2021/10/06 06:57:12;;;;;;;15.53;7.92;;;;;;;17.51;46.72;102008.02;1686070;84;21552;-79
2021/10/06 06:59:39;;;;;;;15.48;7.72;;;;;;;17.70;46.90;102004.22;1678428;83;21058;-78
2021/10/06 07:02:08;;;;;;;11.60;7.35;;;;;;;17.63;45.92;102006.23;1674615;83;21125;-79
2021/10/06 07:04:35;;;;;;;15.90;7.55;;;;;;;17.57;45.84;102011.30;1678472;84;21098;-78
2021/10/06 07:07:04;;;;;;;13.70;8.78;;;;;;;17.73;46.70;102000.95;1633541;87;21071;-78
2021/10/06 07:09:31;;;;;;;13.55;8.28;;;;;;;18.00;45.53;101997.75;1641598;84;21147;-78
2021/10/06 07:11:57;;;;;;;15.65;7.85;;;;;;;18.26;44.24;102003.00;1674992;85;21638;-79
2021/10/06 07:14:24;;;;;;;15.05;7.83;;;;;;;18.45;45.10;101996.02;1676991;85;21232;-79
2021/10/06 07:16:51;;;;;;;16.20;7.83;;;;;;;18.74;43.25;101999.28;1664872;85;21123;-78
2021/10/06 07:19:17;;;;;;;14.50;8.13;;;;;;;18.76;42.15;101994.28;1672718;85;22132;-79
2021/10/06 07:21:44;;;;;;;17.10;8.03;;;;;;;18.56;42.37;101999.56;1675389;85;21023;-80
2021/10/06 07:24:13;;;;;;;15.30;6.92;;;;;;;18.44;42.40;102003.13;1672196;84;21140;-78
2021/10/06 07:26:41;;;;;;;17.75;7.78;;;;;;;18.43;42.50;102004.08;1661668;85;21136;-80
2021/10/06 07:29:08;;;;;;;17.30;7.70;;;;;;;18.50;42.52;102003.36;1674899;85;21557;-78
2021/10/06 07:31:35;;;;;;;13.03;6.97;;;;;;;18.60;42.04;102006.05;1665928;85;21146;-79
2021/10/06 07:34:02;;;;;;;12.98;7.25;;;;;;;18.28;42.99;101998.00;1664731;85;21133;-79
2021/10/06 07:36:30;;;;;;;9.98;6.40;;;;;;;18.26;42.30;101996.33;1672584;85;21097;-80
2021/10/06 07:38:57;;;;;;;14.03;6.45;;;;;;;18.41;42.61;101993.92;1674563;85;21059;-78
2021/10/06 07:41:23;;;;;;;15.18;6.47;;;;;;;18.57;41.61;101998.18;1677822;85;21070;-80
2021/10/06 07:43:50;;;;;;;14.18;7.40;;;;;;;18.77;41.47;101992.06;1669235;84;21220;-81
2021/10/06 07:46:17;;;;;;;11.45;6.85;;;;;;;18.88;40.67;102001.41;1664071;86;21126;-80
2021/10/06 07:48:44;;;;;;;12.73;7.22;;;;;;;18.77;40.62;101992.50;1663608;86;21082;-78
2021/10/06 07:51:10;;;;;;;13.08;7.33;;;;;;;18.78;40.92;101991.59;1662848;86;21160;-80
2021/10/06 07:53:37;;;;;;;10.60;7.12;;;;;;;19.01;41.28;101987.47;1663609;86;22263;-80
2021/10/06 07:56:04;;;;;;;10.72;6.05;;;;;;;19.39;39.40;101990.25;1663171;84;21059;-80
2021/10/06 07:58:33;;;;;;;20.88;7.60;;;;;;;19.34;38.83;101994.94;1663313;86;21119;-79
2021/10/06 08:01:00;;;;;;;11.43;7.42;;;;;;;19.34;38.85;101981.58;1663130;86;21608;-78
2021/10/06 08:03:26;;;;;;;12.80;7.95;;;;;;;19.45;38.21;101973.96;1663532;86;21011;-78
2021/10/06 08:05:53;;;;;;;15.38;8.80;;;;;;;19.61;37.90;101982.63;1662530;85;21115;-79
2021/10/06 08:08:19;;;;;;;11.18;7.40;;;;;;;19.78;37.42;101976.05;1651438;86;21143;-79
2021/10/06 08:25:11;;;;;;;16.90;6.40;;;;;;;20.85;35.46;101970.48;1732204;80;22781;-78
2021/10/06 08:27:38;;;;;;;16.52;5.55;;;;;;;20.78;34.11;101965.91;1705427;82;21113;-79
2021/10/06 08:30:06;;;;;;;14.30;6.28;;;;;;;20.56;33.84;101964.78;1709543;82;21968;-79
2021/10/06 08:32:33;;;;;;;11.00;6.15;;;;;;;20.24;34.59;101971.20;1768157;80;21104;-79
2021/10/06 08:34:59;;;;;;;16.23;5.75;;;;;;;20.23;34.94;101968.14;1760505;81;21342;-79
2021/10/06 08:37:26;;;;;;;12.80;6.22;;;;;;;20.29;34.13;101970.53;1768060;80;20993;-79
2021/10/06 08:39:52;;;;;;;18.62;6.53;;;;;;;20.67;33.95;101966.45;1760544;81;21115;-78
2021/10/06 08:42:20;;;;;;;15.63;5.80;;;;;;;20.75;33.39;101968.72;1774549;80;21147;-78
2021/10/06 08:44:47;;;;;;;15.68;6.15;;;;;;;20.58;33.77;101959.36;1786471;80;22088;-79
2021/10/06 08:47:14;;;;;;;15.78;5.78;;;;;;;20.91;33.54;101963.46;1760145;80;20985;-79
2021/10/06 08:49:44;;;;;;;18.98;5.72;;;;;;;20.84;32.40;101960.70;1786057;80;21575;-79
2021/10/06 08:52:13;;;;;;;14.60;5.53;;;;;;;20.70;31.85;101970.30;1786526;80;21690;-79
2021/10/06 08:54:40;;;;;;;11.80;5.70;;;;;;;20.22;32.88;101955.72;1758873;80;21148;-79
2021/10/06 08:57:12;;;;;;;13.93;5.47;;;;;;;19.99;33.57;101950.59;1768105;80;21737;-78
2021/10/06 08:59:37;;;;;;;14.65;6.10;;;;;;;19.65;34.86;101964.19;1715102;80;21061;-77
2021/10/06 09:02:13;;;;;;;11.30;5.78;;;;;;;19.78;34.40;101961.35;1759627;80;21085;-80
2021/10/06 09:04:41;;;;;;;14.00;5.37;;;;;;;20.02;33.28;101958.48;1747819;80;21132;-83
2021/10/06 09:07:08;;;;;;;14.53;5.67;;;;;;;20.22;33.21;101958.84;1753258;81;21111;-80
2021/10/06 09:09:37;;;;;;;11.57;5.60;;;;;;;20.50;32.42;101958.38;1744635;81;21099;-76
2021/10/06 09:12:14;;;;;;;12.50;6.28;;;;;;;20.59;32.53;101959.29;1739626;82;21253;-82
2021/10/06 09:14:45;;;;;;;15.28;6.25;;;;;;;20.55;32.27;101960.34;1746336;81;21039;-78
2021/10/06 09:17:18;;;;;;;21.23;6.17;;;;;;;20.33;32.27;101958.71;1727623;81;21161;-78
2021/10/06 09:19:54;;;;;;;10.48;5.30;;;;;;;20.40;32.11;101955.75;1743017;81;21184;-78
2021/10/06 09:22:27;;;;;;;9.98;5.97;;;;;;;20.33;31.54;101972.09;1763053;81;21038;-78
2021/10/06 09:25:05;;;;;;;12.75;4.83;;;;;;;19.98;31.91;101958.23;1763343;81;21123;-79
2021/10/06 09:27:38;;;;;;;15.38;6.15;;;;;;;19.66;31.49;101983.28;1767155;81;21045;-78
2021/10/06 09:30:10;;;;;;;13.78;5.30;;;;;;;19.11;31.79;101963.04;1764347;81;21064;-78
2021/10/06 09:32:40;;;;;;;13.40;5.40;;;;;;;19.13;32.66;101955.36;1722191;81;22131;-79
2021/10/06 09:35:20;;;;;;;15.08;5.47;;;;;;;18.99;33.40;101966.64;1716185;82;21576;-80
2021/10/06 09:37:53;;;;;;;15.55;4.78;;;;;;;19.02;33.07;101969.16;1711261;81;21004;-79
2021/10/06 09:40:23;;;;;;;21.17;6.42;;;;;;;18.91;32.07;101959.45;1716651;81;21132;-79
2021/10/06 09:42:56;;;;;;;12.75;5.10;;;;;;;18.74;33.60;101957.91;1712568;81;21063;-80
2021/10/06 09:45:33;;;;;;;12.82;5.90;;;;;;;19.13;32.40;101953.16;1728439;82;21131;-80
2021/10/06 09:48:12;;;;;;;8.90;5.00;;;;;;;19.52;32.36;101953.66;1704399;82;21090;-79
2021/10/06 09:50:48;;;;;;;13.85;5.65;;;;;;;19.50;31.53;101957.24;1724546;81;21602;-80
2021/10/06 09:53:20;;;;;;;14.50;5.22;;;;;;;18.81;31.78;101968.77;1724762;82;21102;-79
2021/10/06 09:55:52;;;;;;;14.30;5.22;;;;;;;18.84;31.76;101960.61;1715141;82;21144;-80
2021/10/06 09:58:19;;;;;;;;;;;;;;;19.16;31.79;101953.02;1728383;81;22178;-79
2021/10/06 10:00:48;;;;;;;9.10;5.12;;;;;;;19.46;30.50;101954.34;1730149;81;20196;-80
2021/10/06 10:03:14;;;;;;;10.58;4.58;;;;;;;19.57;30.02;101964.99;1728395;81;21569;-78
2021/10/06 10:05:41;;;;;;;10.63;4.60;;;;;;;19.37;30.10;101948.08;1718169;82;21100;-80
2021/10/06 10:08:10;;;;;;;18.27;5.12;;;;;;;19.34;29.68;101956.20;1703544;84;21154;-79
2021/10/06 10:10:38;;;;;;;17.02;5.10;;;;;;;18.83;31.07;101953.55;1703772;84;21135;-81
2021/10/06 10:13:08;;;;;;;8.53;4.72;;;;;;;18.29;32.19;101942.86;1704138;84;21062;-81
2021/10/06 10:15:35;;;;;;;10.13;4.55;;;;;;;17.91;33.26;101942.13;1704162;84;21130;-79
2021/10/06 10:18:04;;;;;;;19.05;7.55;;;;;;;17.75;33.27;101940.48;1704188;84;21508;-80
2021/10/06 10:20:35;;;;;;;14.55;4.28;;;;;;;17.50;33.79;101971.17;1704514;84;21062;-79
2021/10/06 10:23:03;;;;;;;10.30;3.62;;;;;;;17.36;33.22;101946.38;1709845;82;21187;-78
2021/10/06 10:25:33;;;;;;;9.28;4.25;;;;;;;17.37;33.01;101935.28;1747940;81;21076;-79
2021/10/06 10:28:16;;;;;;;7.55;4.17;;;;;;;17.29;33.46;101936.88;1723053;81;21066;-79
2021/10/06 10:31:02;;;;;;;11.08;4.70;;;;;;;17.05;33.80;101937.31;1728948;82;21282;-79
2021/10/06 10:33:38;;;;;;;12.80;4.47;;;;;;;16.73;33.58;101956.55;1709700;81;21100;-79
2021/10/06 10:36:07;;;;;;;8.83;4.40;;;;;;;16.04;34.50;101956.11;1695386;81;21129;-81
2021/10/06 10:38:35;;;;;;;14.93;4.47;;;;;;;15.66;37.60;101958.08;1728802;81;21102;-81
2021/10/06 10:41:02;;;;;;;14.38;6.15;;;;;;;15.43;36.55;101960.53;1735632;81;21268;-80
2021/10/06 10:43:31;;;;;;;11.78;6.60;;;;;;;15.46;37.01;101955.13;1703825;83;21034;-79
2021/10/06 10:46:09;;;;;;;17.25;4.95;;;;;;;15.91;36.48;101944.11;1695012;83;21081;-79
2021/10/06 10:48:53;;;;;;;20.00;6.87;;;;;;;16.50;35.21;101937.83;1714754;82;21977;-80
2021/10/06 10:51:20;;;;;;;8.30;5.25;;;;;;;16.83;35.35;101931.85;1729860;81;21760;-76
2021/10/06 10:53:54;;;;;;;13.28;5.22;;;;;;;16.64;33.38;101920.94;1740290;81;21106;-79
2021/10/06 10:56:32;;;;;;;16.50;8.55;;;;;;;16.35;33.90;101935.20;1731823;81;21086;-78
2021/10/06 10:59:09;;;;;;;9.70;4.83;;;;;;;16.50;34.02;101922.73;1729110;80;21142;-77
2021/10/06 11:01:43;;;;;;;16.95;6.90;;;;;;;17.13;33.60;101926.38;1743444;81;21165;-78
2021/10/06 11:04:19;;;;;;;25.23;13.78;;;;;;;17.91;32.11;101913.28;1724217;82;21075;-78
2021/10/06 11:06:54;;;;;;;11.55;4.30;;;;;;;18.48;32.44;101911.85;1746417;81;21080;-80
2021/10/06 11:09:35;;;;;;;15.55;6.65;;;;;;;18.86;29.21;101912.03;1754574;81;21110;-79
2021/10/06 11:12:08;;;;;;;;;;;;;;;19.32;27.58;101904.65;1758042;81;21066;-78
2021/10/06 11:14:41;;;;;;;21.27;3.77;;;;;;;19.60;28.38;101909.61;1754988;81;21154;-78
2021/10/06 11:17:11;;;;;;;14.18;3.98;;;;;;;19.71;27.18;101907.78;1754130;81;21581;-77
2021/10/06 11:19:47;;;;;;;11.80;7.87;;;;;;;19.78;27.11;101910.56;1755227;81;21034;-78
2021/10/06 11:22:34;;;;;;;7.90;3.58;;;;;;;19.71;27.77;101910.45;1754608;81;21077;-79
2021/10/06 11:25:04;;;;;;;12.18;4.15;;;;;;;19.49;26.05;101900.75;1746390;81;21533;-78
2021/10/06 11:27:49;;;;;;;10.90;3.80;;;;;;;19.13;27.00;101913.11;1706692;84;21167;-78
2021/10/06 11:30:18;;;;;;;6.30;3.35;;;;;;;18.85;26.26;101916.52;1732578;81;21098;-79
2021/10/06 11:32:47;;;;;;;10.15;4.87;;;;;;;18.35;27.10;101900.81;1745006;81;21114;-82
2021/10/06 11:35:14;;;;;;;10.60;4.17;;;;;;;17.91;28.42;101898.63;1723850;81;21090;-82